createdAt,value
2017-01-01T00:01:46.347Z,1020.463
2017-01-01T00:04:51.505Z,1020.401
2017-01-01T00:07:57.354Z,1020.320
2017-01-01T00:11:02.802Z,1020.287
2017-01-01T00:14:08.601Z,1020.206
2017-01-01T00:17:14.418Z,1020.182
2017-01-01T00:20:19.804Z,1020.152
2017-01-01T00:23:25.532Z,1020.085
2017-01-01T00:26:30.870Z,1020.025
2017-01-01T00:32:42.031Z,1019.899
2017-01-01T00:35:47.721Z,1019.901
2017-01-01T00:38:53.212Z,1019.802
2017-01-01T00:41:58.728Z,1019.841
2017-01-01T00:45:04.044Z,1019.814
2017-01-01T00:48:09.463Z,1019.758
2017-01-01T00:51:14.980Z,1019.736
2017-01-01T00:54:20.323Z,1019.703
2017-01-01T00:57:25.463Z,1019.680
2017-01-01T01:00:31.268Z,1019.654
2017-01-01T01:03:37.062Z,1019.652
2017-01-01T01:06:42.415Z,1019.581
2017-01-01T01:09:48.264Z,1019.497
2017-01-01T01:12:53.556Z,1019.484
2017-01-01T01:15:59.021Z,1019.474
2017-01-01T01:19:04.494Z,1019.492
2017-01-01T01:22:09.962Z,1019.436
2017-01-01T01:25:15.649Z,1019.442
2017-01-01T01:28:20.434Z,1019.435
2017-01-01T01:31:25.789Z,1019.459
2017-01-01T01:34:31.230Z,1019.478
2017-01-01T01:37:36.288Z,1019.456
2017-01-01T01:40:41.786Z,1019.342
2017-01-01T01:43:47.376Z,1019.341
2017-01-01T01:46:52.725Z,1019.286
2017-01-01T01:49:58.278Z,1019.176
2017-01-01T01:53:03.730Z,1019.128
2017-01-01T01:56:09.015Z,1019.067
2017-01-01T01:59:14.306Z,1019.060
2017-01-01T02:02:19.719Z,1019.049
2017-01-01T02:05:25.050Z,1019.058
2017-01-01T02:08:30.516Z,1018.997
2017-01-01T02:11:35.795Z,1018.925
2017-01-01T02:14:41.624Z,1018.890
2017-01-01T02:17:47.235Z,1018.838
2017-01-01T02:20:52.661Z,1018.751
2017-01-01T02:23:57.927Z,1018.677
2017-01-01T02:27:03.140Z,1018.641
2017-01-01T02:30:08.847Z,1018.535
2017-01-01T02:33:14.194Z,1018.422
2017-01-01T02:36:19.661Z,1018.390
2017-01-01T02:39:25.519Z,1018.272
2017-01-01T02:42:30.905Z,1018.258
2017-01-01T02:45:36.311Z,1018.211
2017-01-01T02:48:42.067Z,1018.212
2017-01-01T02:51:47.421Z,1018.172
2017-01-01T02:54:52.858Z,1018.152
2017-01-01T02:57:58.311Z,1018.108
2017-01-01T03:01:03.752Z,1018.095
2017-01-01T03:04:09.092Z,1018.063
2017-01-01T03:07:14.393Z,1017.983
2017-01-01T03:10:20.172Z,1017.952
2017-01-01T03:13:25.566Z,1017.926
2017-01-01T03:16:31.343Z,1017.965
2017-01-01T03:19:36.840Z,1017.912
2017-01-01T03:22:42.708Z,1017.817
2017-01-01T03:25:48.251Z,1017.784
2017-01-01T03:28:53.711Z,1017.748
2017-01-01T03:31:59.116Z,1017.736
2017-01-01T03:35:05.007Z,1017.660
2017-01-01T03:38:10.486Z,1017.593
2017-01-01T03:41:15.759Z,1017.527
2017-01-01T03:44:21.314Z,1017.419
2017-01-01T03:47:26.807Z,1017.346
2017-01-01T03:50:32.109Z,1017.261
2017-01-01T03:53:37.659Z,1017.231
2017-01-01T03:56:42.579Z,1017.239
2017-01-01T03:59:47.954Z,1017.186
2017-01-01T04:02:53.274Z,1017.159
2017-01-01T04:05:59.238Z,1017.141
2017-01-01T04:09:04.620Z,1017.185
2017-01-01T04:12:09.951Z,1017.113
2017-01-01T04:15:15.711Z,1017.103
2017-01-01T04:18:21.623Z,1017.090
2017-01-01T04:21:27.199Z,1017.053
2017-01-01T04:24:33.074Z,1017.027
2017-01-01T04:27:38.901Z,1016.990
2017-01-01T04:30:44.815Z,1016.960
2017-01-01T04:33:50.352Z,1016.949
2017-01-01T04:36:55.634Z,1016.924
2017-01-01T04:40:01.558Z,1016.923
2017-01-01T04:43:07.236Z,1016.816
2017-01-01T04:46:12.827Z,1016.746
2017-01-01T04:49:18.258Z,1016.684
2017-01-01T04:52:23.579Z,1016.565
2017-01-01T04:55:29.424Z,1016.516
2017-01-01T04:58:35.335Z,1016.477
2017-01-01T05:01:40.701Z,1016.434
2017-01-01T05:04:46.153Z,1016.411
2017-01-01T05:07:51.644Z,1016.403
2017-01-01T05:10:57.070Z,1016.361
2017-01-01T05:14:02.642Z,1016.313
2017-01-01T05:17:07.993Z,1016.219
2017-01-01T05:20:13.458Z,1016.226
2017-01-01T05:23:18.723Z,1016.233
2017-01-01T05:26:24.541Z,1016.252
2017-01-01T05:29:29.717Z,1016.254
2017-01-01T05:32:35.120Z,1016.234
2017-01-01T05:35:40.879Z,1016.253
2017-01-01T05:38:46.214Z,1016.182
2017-01-01T05:41:52.075Z,1016.127
2017-01-01T05:44:57.431Z,1016.056
2017-01-01T05:48:02.904Z,1016.062
2017-01-01T05:54:13.924Z,1016.037
2017-01-01T05:57:19.776Z,1015.925
2017-01-01T06:00:25.644Z,1015.888
2017-01-01T06:03:30.963Z,1015.797
2017-01-01T06:06:36.474Z,1015.794
2017-01-01T06:09:41.628Z,1015.729
2017-01-01T06:12:47.477Z,1015.751
2017-01-01T06:15:52.952Z,1015.668
2017-01-01T06:18:58.449Z,1015.689
2017-01-01T06:22:04.375Z,1015.665
2017-01-01T06:25:09.855Z,1015.578
2017-01-01T06:31:21.484Z,1015.563
2017-01-01T06:34:26.431Z,1015.614
2017-01-01T06:37:32.234Z,1015.567
2017-01-01T06:40:37.634Z,1015.503
2017-01-01T06:43:43.132Z,1015.543
2017-01-01T06:46:48.715Z,1015.542
2017-01-01T06:49:54.308Z,1015.527
2017-01-01T06:52:59.728Z,1015.504
2017-01-01T06:56:04.944Z,1015.444
2017-01-01T06:59:10.716Z,1015.422
2017-01-01T07:02:16.110Z,1015.286
2017-01-01T07:05:21.566Z,1015.074
2017-01-01T07:08:27.336Z,1014.940
2017-01-01T07:11:33.308Z,1015.011
2017-01-01T07:14:39.243Z,1015.110
2017-01-01T07:17:44.598Z,1015.357
2017-01-01T07:20:50.080Z,1015.326
2017-01-01T07:23:55.540Z,1015.311
2017-01-01T07:27:00.916Z,1015.345
2017-01-01T07:30:06.759Z,1015.358
2017-01-01T07:33:12.164Z,1015.367
2017-01-01T07:36:17.627Z,1015.312
2017-01-01T07:39:23.053Z,1015.317
2017-01-01T07:42:28.814Z,1015.294
2017-01-01T07:45:34.671Z,1015.276
2017-01-01T07:48:39.933Z,1015.236
2017-01-01T07:51:45.704Z,1015.195
2017-01-01T07:54:51.528Z,1015.183
2017-01-01T07:57:56.978Z,1015.212
2017-01-01T08:01:02.374Z,1015.237
2017-01-01T08:04:08.192Z,1015.238
2017-01-01T08:07:14.024Z,1015.209
2017-01-01T08:10:19.545Z,1015.058
2017-01-01T08:13:25.079Z,1015.049
2017-01-01T08:16:30.419Z,1015.021
2017-01-01T08:19:35.873Z,1015.060
2017-01-01T08:22:41.220Z,1015.038
2017-01-01T08:25:46.973Z,1015.034
2017-01-01T08:28:52.234Z,1014.981
2017-01-01T08:31:58.117Z,1014.959
2017-01-01T08:35:03.980Z,1014.955
2017-01-01T08:38:09.461Z,1014.903
2017-01-01T08:41:14.788Z,1014.874
2017-01-01T08:44:20.221Z,1014.846
2017-01-01T08:47:25.587Z,1014.834
2017-01-01T08:50:31.412Z,1014.791
2017-01-01T08:53:36.789Z,1014.791
2017-01-01T08:56:42.176Z,1014.799
2017-01-01T08:59:47.725Z,1014.790
2017-01-01T09:02:52.606Z,1014.774
2017-01-01T09:05:58.477Z,1014.789
2017-01-01T09:09:03.692Z,1014.739
2017-01-01T09:12:09.096Z,1014.728
2017-01-01T09:15:14.442Z,1014.675
2017-01-01T09:18:19.925Z,1014.612
2017-01-01T09:21:25.211Z,1014.621
2017-01-01T09:24:31.070Z,1014.650
2017-01-01T09:27:37.047Z,1014.656
2017-01-01T09:30:42.579Z,1014.668
2017-01-01T09:33:47.951Z,1014.718
2017-01-01T09:36:53.753Z,1014.748
2017-01-01T09:39:59.620Z,1014.742
2017-01-01T09:43:05.103Z,1014.704
2017-01-01T09:46:10.481Z,1014.696
2017-01-01T09:49:15.998Z,1014.682
2017-01-01T09:52:21.356Z,1014.700
2017-01-01T09:55:26.984Z,1014.701
2017-01-01T09:58:32.825Z,1014.665
2017-01-01T10:01:38.134Z,1014.616
2017-01-01T10:04:43.486Z,1014.571
2017-01-01T10:07:49.072Z,1014.570
2017-01-01T10:10:54.859Z,1014.514
2017-01-01T10:14:00.010Z,1014.486
2017-01-01T10:17:05.839Z,1014.475
2017-01-01T10:20:11.462Z,1014.452
2017-01-01T10:23:17.202Z,1014.434
2017-01-01T10:26:22.696Z,1014.430
2017-01-01T10:29:28.219Z,1014.310
2017-01-01T10:32:33.795Z,1014.316
2017-01-01T10:35:39.715Z,1014.241
2017-01-01T10:38:45.614Z,1014.202
2017-01-01T10:41:50.993Z,1014.248
2017-01-01T10:44:56.461Z,1014.162
2017-01-01T10:48:02.251Z,1014.186
2017-01-01T10:51:08.167Z,1014.189
2017-01-01T10:54:13.647Z,1014.173
2017-01-01T10:57:19.214Z,1014.218
2017-01-01T11:00:24.426Z,1014.244
2017-01-01T11:03:29.757Z,1014.088
2017-01-01T11:06:35.616Z,1014.087
2017-01-01T11:09:41.035Z,1014.045
2017-01-01T11:12:46.456Z,1014.092
2017-01-01T11:15:51.400Z,1014.029
2017-01-01T11:18:56.856Z,1014.026
2017-01-01T11:22:02.243Z,1013.966
2017-01-01T11:25:07.648Z,1013.889
2017-01-01T11:28:13.478Z,1013.849
2017-01-01T11:31:19.321Z,1013.829
2017-01-01T11:34:24.675Z,1013.857
2017-01-01T11:37:30.030Z,1013.923
2017-01-01T11:40:35.408Z,1013.869
2017-01-01T11:43:41.179Z,1013.823
2017-01-01T11:46:46.971Z,1013.813
2017-01-01T11:49:52.933Z,1013.781
2017-01-01T11:52:58.753Z,1013.690
2017-01-01T11:56:04.649Z,1013.578
2017-01-01T11:59:10.444Z,1013.591
2017-01-01T12:02:16.214Z,1013.608
2017-01-01T12:05:22.072Z,1013.639
2017-01-01T12:08:27.461Z,1013.617
2017-01-01T12:11:32.868Z,1013.560
2017-01-01T12:14:38.161Z,1013.486
2017-01-01T12:20:49.371Z,1013.474
2017-01-01T12:23:54.940Z,1013.493
2017-01-01T12:27:00.045Z,1013.486
2017-01-01T12:30:05.910Z,1013.413
2017-01-01T12:33:11.794Z,1013.450
2017-01-01T12:36:17.249Z,1013.389
2017-01-01T12:39:22.726Z,1013.382
2017-01-01T12:42:28.138Z,1013.274
2017-01-01T12:45:34.031Z,1013.234
2017-01-01T12:48:39.278Z,1013.204
2017-01-01T12:51:44.990Z,1013.163
2017-01-01T12:54:50.726Z,1013.137
2017-01-01T12:57:56.190Z,1013.158
2017-01-01T13:01:01.621Z,1013.185
2017-01-01T13:04:07.331Z,1013.144
2017-01-01T13:07:13.164Z,1013.191
2017-01-01T13:10:18.697Z,1013.241
2017-01-01T13:16:29.994Z,1013.234
2017-01-01T13:19:35.891Z,1013.227
2017-01-01T13:25:47.277Z,1013.150
2017-01-01T13:28:53.190Z,1013.067
2017-01-01T13:31:58.841Z,1013.101
2017-01-01T13:35:04.540Z,1013.099
2017-01-01T13:38:10.528Z,1013.151
2017-01-01T13:41:16.268Z,1013.112
2017-01-01T13:44:22.272Z,1013.065
2017-01-01T13:47:27.606Z,1013.007
2017-01-01T13:50:33.014Z,1012.996
2017-01-01T13:53:38.889Z,1013.049
2017-01-01T13:56:44.413Z,1013.112
2017-01-01T14:02:55.963Z,1013.037
2017-01-01T14:06:01.460Z,1013.133
2017-01-01T14:09:06.934Z,1013.134
2017-01-01T14:12:12.788Z,1013.139
2017-01-01T14:15:18.396Z,1013.133
2017-01-01T14:18:23.555Z,1013.118
2017-01-01T14:21:28.872Z,1013.100
2017-01-01T14:24:34.675Z,1013.072
2017-01-01T14:27:40.140Z,1013.000
2017-01-01T14:30:45.305Z,1012.958
2017-01-01T14:33:50.738Z,1012.932
2017-01-01T14:36:56.133Z,1012.963
2017-01-01T14:40:01.902Z,1013.018
2017-01-01T14:43:07.902Z,1013.011
2017-01-01T14:46:13.757Z,1012.992
2017-01-01T14:52:25.135Z,1013.008
2017-01-01T14:55:30.572Z,1012.981
2017-01-01T14:58:36.481Z,1013.010
2017-01-01T15:01:41.643Z,1013.014
2017-01-01T15:04:47.018Z,1012.994
2017-01-01T15:07:52.508Z,1012.982
2017-01-01T15:10:58.232Z,1012.979
2017-01-01T15:14:03.485Z,1012.976
2017-01-01T15:17:08.928Z,1012.946
2017-01-01T15:20:14.743Z,1012.921
2017-01-01T15:23:19.730Z,1012.946
2017-01-01T15:26:25.588Z,1012.948
2017-01-01T15:29:30.587Z,1012.972
2017-01-01T15:32:36.367Z,1012.973
2017-01-01T15:35:41.706Z,1012.948
2017-01-01T15:38:47.143Z,1012.881
2017-01-01T15:44:58.702Z,1012.871
2017-01-01T15:48:03.909Z,1012.856
2017-01-01T15:51:09.907Z,1012.922
2017-01-01T15:54:15.254Z,1012.963
2017-01-01T15:57:21.194Z,1012.944
2017-01-01T16:00:27.013Z,1013.040
2017-01-01T16:06:38.861Z,1013.002
2017-01-01T16:09:44.121Z,1012.962
2017-01-01T16:12:45.171Z,1012.986
2017-01-01T16:15:55.962Z,1012.986
2017-01-01T16:19:01.558Z,1013.027
2017-01-01T16:22:07.003Z,1013.011
2017-01-01T16:25:12.563Z,1013.062
2017-01-01T16:28:18.448Z,1013.059
2017-01-01T16:31:23.844Z,1013.077
2017-01-01T16:34:29.338Z,1013.076
2017-01-01T16:37:34.807Z,1013.014
2017-01-01T16:40:40.240Z,1012.974
2017-01-01T16:43:45.684Z,1012.980
2017-01-01T16:46:51.240Z,1013.004
2017-01-01T16:49:56.776Z,1013.013
2017-01-01T16:53:02.390Z,1013.005
2017-01-01T16:56:07.830Z,1013.035
2017-01-01T16:59:13.615Z,1012.943
2017-01-01T17:02:19.455Z,1012.933
2017-01-01T17:05:25.190Z,1012.805
2017-01-01T17:08:30.653Z,1012.795
2017-01-01T17:11:36.299Z,1012.809
2017-01-01T17:14:41.918Z,1012.850
2017-01-01T17:17:47.160Z,1012.893
2017-01-01T17:20:52.551Z,1012.870
2017-01-01T17:23:58.385Z,1012.872
2017-01-01T17:27:03.846Z,1012.867
2017-01-01T17:30:10.488Z,1012.856
2017-01-01T17:33:16.422Z,1012.912
2017-01-01T17:36:22.402Z,1012.860
2017-01-01T17:39:23.371Z,1012.886
2017-01-01T17:42:34.070Z,1012.852
2017-01-01T17:45:39.521Z,1012.897
2017-01-01T17:51:50.525Z,1012.837
2017-01-01T17:54:56.238Z,1012.809
2017-01-01T17:58:01.682Z,1012.776
2017-01-01T18:01:07.031Z,1012.740
2017-01-01T18:04:12.789Z,1012.787
2017-01-01T18:07:18.518Z,1012.831
2017-01-01T18:10:24.146Z,1012.887
2017-01-01T18:13:29.927Z,1012.880
2017-01-01T18:16:35.780Z,1012.824
2017-01-01T18:19:41.713Z,1012.859
2017-01-01T18:22:47.444Z,1012.776
2017-01-01T18:25:52.973Z,1012.781
2017-01-01T18:28:58.300Z,1012.752
2017-01-01T18:32:04.140Z,1012.771
2017-01-01T18:35:09.901Z,1012.731
2017-01-01T18:38:15.305Z,1012.742
2017-01-01T18:41:20.260Z,1012.683
2017-01-01T18:44:25.668Z,1012.771
2017-01-01T18:47:31.278Z,1012.844
2017-01-01T18:50:36.595Z,1012.827
2017-01-01T18:53:41.794Z,1012.848
2017-01-01T18:56:47.545Z,1012.829
2017-01-01T18:59:53.131Z,1012.776
2017-01-01T19:02:58.938Z,1012.777
2017-01-01T19:06:03.663Z,1012.835
2017-01-01T19:09:09.478Z,1012.820
2017-01-01T19:12:14.954Z,1012.797
2017-01-01T19:15:20.345Z,1012.778
2017-01-01T19:18:25.794Z,1012.790
2017-01-01T19:21:31.294Z,1012.763
2017-01-01T19:24:36.549Z,1012.898
2017-01-01T19:27:42.076Z,1012.864
2017-01-01T19:30:47.452Z,1012.832
2017-01-01T19:33:53.227Z,1012.850
2017-01-01T19:36:58.494Z,1012.924
2017-01-01T19:40:03.728Z,1012.922
2017-01-01T19:43:09.304Z,1012.972
2017-01-01T19:46:14.759Z,1012.933
2017-01-01T19:49:20.537Z,1012.946
2017-01-01T19:52:25.946Z,1012.967
2017-01-01T19:55:31.776Z,1012.900
2017-01-01T19:58:37.689Z,1012.961
2017-01-01T20:01:43.171Z,1012.933
2017-01-01T20:04:49.029Z,1012.988
2017-01-01T20:07:54.837Z,1013.023
2017-01-01T20:11:00.169Z,1013.018
2017-01-01T20:14:05.396Z,1013.076
2017-01-01T20:17:10.900Z,1013.100
2017-01-01T20:20:16.041Z,1013.120
2017-01-01T20:23:21.457Z,1013.144
2017-01-01T20:26:26.972Z,1013.158
2017-01-01T20:29:32.730Z,1013.174
2017-01-01T20:32:38.145Z,1013.171
2017-01-01T20:35:43.548Z,1013.215
2017-01-01T20:38:49.102Z,1013.156
2017-01-01T20:41:54.858Z,1013.129
2017-01-01T20:45:00.303Z,1013.139
2017-01-01T20:48:06.259Z,1013.112
2017-01-01T20:51:12.075Z,1013.104
2017-01-01T20:54:17.493Z,1013.067
2017-01-01T20:57:23.276Z,1013.065
2017-01-01T21:00:28.678Z,1013.086
2017-01-01T21:03:34.004Z,1013.124
2017-01-01T21:06:39.567Z,1013.135
2017-01-01T21:09:44.932Z,1013.155
2017-01-01T21:12:50.248Z,1013.184
2017-01-01T21:15:55.990Z,1013.165
2017-01-01T21:19:01.437Z,1013.150
2017-01-01T21:22:06.976Z,1013.159
2017-01-01T21:25:12.656Z,1013.208
2017-01-01T21:28:18.347Z,1013.259
2017-01-01T21:31:23.719Z,1013.270
2017-01-01T21:34:29.765Z,1013.256
2017-01-01T21:37:35.918Z,1013.197
2017-01-01T21:40:41.661Z,1013.189
2017-01-01T21:43:47.057Z,1013.181
2017-01-01T21:46:52.421Z,1013.204
2017-01-01T21:49:58.206Z,1013.192
2017-01-01T21:53:04.183Z,1013.171
2017-01-01T21:56:10.264Z,1013.141
2017-01-01T21:59:16.436Z,1013.157
2017-01-01T22:02:21.798Z,1013.143
2017-01-01T22:05:27.076Z,1013.075
2017-01-01T22:08:33.170Z,1013.084
2017-01-01T22:11:38.355Z,1013.049
2017-01-01T22:14:44.171Z,1013.069
2017-01-01T22:20:55.787Z,1013.080
2017-01-01T22:24:01.271Z,1013.051
2017-01-01T22:27:06.695Z,1013.015
2017-01-01T22:30:12.649Z,1012.972
2017-01-01T22:33:18.417Z,1012.956
2017-01-01T22:36:23.769Z,1012.900
2017-01-01T22:39:29.215Z,1012.832
2017-01-01T22:42:34.666Z,1012.756
2017-01-01T22:45:40.106Z,1012.714
2017-01-01T22:48:45.446Z,1012.673
2017-01-01T22:51:50.887Z,1012.723
2017-01-01T22:54:56.510Z,1012.754
2017-01-01T22:58:02.335Z,1012.776
2017-01-01T23:01:07.656Z,1012.762
2017-01-01T23:04:13.075Z,1012.862
2017-01-01T23:07:18.803Z,1012.879
2017-01-01T23:10:24.262Z,1012.821
2017-01-01T23:13:29.864Z,1012.841
2017-01-01T23:16:35.295Z,1012.853
2017-01-01T23:19:40.507Z,1012.758
2017-01-01T23:22:45.924Z,1012.743
2017-01-01T23:25:51.319Z,1012.750
2017-01-01T23:28:57.216Z,1012.754
2017-01-01T23:32:02.809Z,1012.754
2017-01-01T23:35:08.538Z,1012.737
2017-01-01T23:38:13.809Z,1012.659
2017-01-01T23:41:19.629Z,1012.624
2017-01-01T23:44:25.287Z,1012.596
2017-01-01T23:47:30.632Z,1012.537
2017-01-01T23:50:36.056Z,1012.529
2017-01-01T23:53:41.798Z,1012.511
2017-01-01T23:59:52.425Z,1012.408
